createdAt,value
2019-03-01T00:02:57.696Z,9.90
2019-03-01T00:08:14.812Z,9.60
2019-03-01T00:13:31.855Z,11.77
2019-03-01T00:18:49.374Z,11.60
2019-03-01T00:24:06.360Z,11.87
2019-03-01T00:29:23.728Z,11.60
2019-03-01T00:34:41.495Z,11.93
2019-03-01T00:39:59.199Z,12.13
2019-03-01T00:45:16.365Z,11.63
2019-03-01T00:50:33.229Z,12.57
2019-03-01T00:55:49.978Z,13.63
2019-03-01T01:01:07.595Z,13.50
2019-03-01T01:06:25.347Z,13.47
2019-03-01T01:11:42.338Z,12.97
2019-03-01T01:16:59.944Z,15.87
2019-03-01T01:22:17.163Z,14.43
2019-03-01T01:27:34.279Z,16.27
2019-03-01T01:38:36.449Z,15.30
2019-03-01T01:43:53.274Z,14.60
2019-03-01T01:49:11.007Z,16.10
2019-03-01T01:54:28.374Z,16.63
2019-03-01T01:59:42.894Z,15.13
2019-03-01T02:05:00.000Z,14.67
2019-03-01T02:10:17.358Z,14.73
2019-03-01T02:15:34.501Z,15.60
2019-03-01T02:20:51.737Z,17.93
2019-03-01T02:26:09.253Z,14.40
2019-03-01T02:31:26.401Z,13.70
2019-03-01T02:36:43.361Z,14.10
2019-03-01T02:42:00.257Z,14.43
2019-03-01T02:47:17.442Z,14.00
2019-03-01T02:52:35.021Z,15.37
2019-03-01T02:57:52.406Z,14.00
2019-03-01T03:03:09.309Z,15.20
2019-03-01T03:08:26.275Z,14.53
2019-03-01T03:13:43.036Z,17.57
2019-03-01T03:19:00.578Z,15.47
2019-03-01T03:24:17.587Z,15.80
2019-03-01T03:29:35.340Z,17.30
2019-03-01T03:34:52.294Z,15.63
2019-03-01T03:40:09.969Z,16.73
2019-03-01T03:45:26.930Z,18.92
2019-03-01T03:50:44.071Z,20.65
2019-03-01T03:56:01.260Z,17.20
2019-03-01T04:01:18.699Z,15.57
2019-03-01T04:06:35.531Z,16.67
2019-03-01T05:21:14.518Z,25.97
2019-03-01T05:26:50.883Z,26.60
2019-03-01T05:32:08.061Z,28.60
2019-03-01T05:55:58.056Z,29.57
2019-03-01T06:07:17.689Z,43.02
2019-03-01T06:12:53.846Z,35.08
2019-03-01T07:18:20.406Z,21.97
2019-03-01T08:28:07.779Z,21.70
2019-03-01T08:33:51.071Z,21.57
2019-03-01T09:15:39.169Z,19.07
2019-03-01T09:38:52.162Z,16.60
2019-03-01T09:43:59.612Z,15.23
2019-03-01T09:49:05.938Z,15.87
2019-03-01T09:54:12.024Z,16.20
2019-03-01T09:59:17.897Z,14.67
2019-03-01T10:04:23.962Z,16.27
2019-03-01T10:09:30.034Z,14.50
2019-03-01T10:14:36.083Z,16.50
2019-03-01T10:19:42.081Z,15.40
2019-03-01T10:24:48.151Z,14.60
2019-03-01T10:29:54.043Z,13.67
2019-03-01T10:35:00.136Z,12.90
2019-03-01T10:40:06.678Z,12.97
2019-03-01T10:45:15.572Z,14.37
2019-03-01T10:50:21.599Z,12.73
2019-03-01T10:55:27.687Z,21.33
2019-03-01T11:00:33.757Z,13.87
2019-03-01T11:05:39.759Z,14.90
2019-03-01T11:10:45.604Z,13.13
2019-03-01T11:15:51.682Z,12.93
2019-03-01T11:20:57.923Z,13.33
2019-03-01T11:26:03.945Z,12.33
2019-03-01T11:31:10.153Z,14.63
2019-03-01T11:36:16.184Z,15.80
2019-03-01T11:41:22.330Z,15.53
2019-03-01T11:46:28.351Z,16.37
2019-03-01T11:51:34.131Z,15.90
2019-03-01T11:56:40.322Z,17.77
2019-03-01T12:01:46.413Z,16.57
2019-03-01T12:06:53.805Z,17.23
2019-03-01T12:11:59.757Z,16.87
2019-03-01T12:17:05.941Z,18.37
2019-03-01T12:22:17.045Z,15.93
2019-03-01T12:27:19.725Z,18.47
2019-03-01T12:32:25.712Z,18.17
2019-03-01T12:37:32.006Z,16.90
2019-03-01T12:42:37.989Z,17.43
2019-03-01T12:47:44.113Z,18.47
2019-03-01T12:52:50.321Z,16.90
2019-03-01T12:57:56.376Z,18.17
2019-03-01T13:03:05.170Z,18.63
2019-03-01T13:08:12.600Z,18.57
2019-03-01T13:13:17.489Z,18.33
2019-03-01T13:18:23.556Z,18.67
2019-03-01T13:23:29.333Z,19.40
2019-03-01T13:28:35.512Z,18.03
2019-03-01T13:33:41.619Z,21.43
2019-03-01T13:38:47.666Z,21.03
2019-03-01T13:43:53.721Z,20.80
2019-03-01T13:48:59.617Z,19.97
2019-03-01T13:54:05.733Z,21.27
2019-03-01T13:59:13.424Z,19.83
2019-03-01T14:04:19.536Z,22.00
2019-03-01T14:09:27.093Z,19.77
2019-03-01T14:14:33.303Z,20.17
2019-03-01T14:19:42.297Z,21.07
2019-03-01T14:24:46.973Z,20.10
2019-03-01T14:29:53.798Z,20.07
2019-03-01T14:34:59.732Z,21.53
2019-03-01T14:40:06.681Z,19.70
2019-03-01T14:45:15.267Z,20.00
2019-03-01T14:50:22.556Z,18.30
2019-03-01T14:55:37.664Z,19.67
2019-03-01T15:01:23.283Z,20.13
2019-03-01T15:06:29.749Z,17.50
2019-03-01T15:11:35.860Z,18.83
2019-03-01T15:16:43.314Z,18.73
2019-03-01T15:21:49.937Z,19.50
2019-03-01T15:26:56.017Z,17.70
2019-03-01T15:32:01.987Z,17.73
2019-03-01T15:37:09.367Z,18.07
2019-03-01T15:42:17.636Z,18.53
2019-03-01T15:47:23.839Z,20.27
2019-03-01T15:52:30.615Z,17.83
2019-03-01T15:57:36.540Z,18.10
2019-03-01T16:02:42.466Z,19.17
2019-03-01T16:07:48.544Z,17.37
2019-03-01T16:12:54.474Z,18.83
2019-03-01T16:18:00.971Z,19.17
2019-03-01T16:23:07.701Z,17.77
2019-03-01T16:28:14.685Z,18.33
2019-03-01T16:33:22.456Z,19.07
2019-03-01T16:38:28.587Z,18.33
2019-03-01T16:43:34.552Z,17.83
2019-03-01T16:48:40.489Z,23.15
2019-03-01T16:53:46.616Z,21.62
2019-03-01T16:58:52.583Z,17.63
2019-03-01T17:03:58.633Z,17.37
2019-03-01T17:09:05.883Z,21.50
2019-03-01T17:14:11.847Z,18.27
2019-03-01T17:19:20.511Z,18.13
2019-03-01T17:24:25.523Z,20.55
2019-03-01T17:29:31.640Z,18.10
2019-03-01T17:34:37.794Z,18.63
2019-03-01T17:39:44.090Z,17.40
2019-03-01T17:44:50.282Z,20.80
2019-03-01T17:49:56.203Z,20.88
2019-03-01T17:55:02.764Z,19.57
2019-03-01T18:00:12.446Z,20.30
2019-03-01T18:05:18.497Z,20.47
2019-03-01T18:10:25.161Z,24.05
2019-03-01T18:15:31.081Z,25.67
2019-03-01T18:20:37.680Z,24.20
2019-03-01T18:25:44.934Z,20.55
2019-03-01T18:30:51.994Z,21.27
2019-03-01T18:35:58.796Z,21.23
2019-03-01T18:41:05.234Z,21.10
2019-03-01T18:46:11.219Z,18.70
2019-03-01T18:51:17.314Z,22.98
2019-03-01T18:56:25.013Z,18.47
2019-03-01T19:01:30.869Z,17.13
2019-03-01T19:06:37.043Z,18.67
2019-03-01T19:11:43.054Z,17.60
2019-03-01T19:16:49.559Z,17.00
2019-03-01T19:21:56.049Z,15.57
2019-03-01T19:27:01.795Z,15.37
2019-03-01T19:32:08.158Z,14.87
2019-03-01T19:37:14.550Z,13.33
2019-03-01T19:42:20.703Z,13.17
2019-03-01T19:47:27.268Z,11.37
2019-03-01T19:52:33.315Z,12.37
2019-03-01T19:57:39.492Z,13.20
2019-03-01T20:02:45.550Z,15.15
2019-03-01T20:07:54.410Z,13.03
2019-03-01T20:12:59.587Z,14.30
2019-03-01T20:18:06.787Z,13.53
2019-03-01T20:23:13.324Z,15.30
2019-03-01T20:28:19.203Z,17.27
2019-03-01T20:33:27.195Z,16.97
2019-03-01T20:38:32.844Z,17.13
2019-03-01T20:43:41.766Z,16.37
2019-03-01T20:48:46.672Z,18.27
2019-03-01T20:53:52.590Z,16.50
2019-03-01T20:58:58.456Z,17.80
2019-03-01T21:04:04.852Z,15.27
2019-03-01T21:09:11.683Z,15.43
2019-03-01T21:14:17.473Z,15.93
2019-03-01T21:19:23.565Z,17.97
2019-03-01T21:24:29.741Z,16.67
2019-03-01T21:29:35.838Z,16.03
2019-03-01T21:34:43.700Z,15.03
2019-03-01T21:39:49.764Z,15.33
2019-03-01T21:44:55.806Z,14.90
2019-03-01T21:50:04.275Z,12.90
2019-03-01T21:55:11.186Z,13.83
2019-03-01T22:00:19.062Z,11.57
2019-03-01T22:05:25.082Z,8.83
2019-03-01T22:10:31.558Z,9.00
2019-03-01T22:15:39.010Z,11.38
2019-03-01T22:20:45.752Z,11.53
2019-03-01T22:25:51.864Z,8.80
2019-03-01T22:31:00.279Z,8.50
2019-03-01T22:36:05.878Z,8.93
2019-03-01T22:41:11.940Z,8.37
2019-03-01T22:46:21.119Z,9.17
2019-03-01T22:51:25.636Z,9.23
2019-03-01T22:56:31.523Z,8.93
2019-03-01T23:01:42.383Z,8.17
2019-03-01T23:06:51.506Z,8.37
2019-03-01T23:11:56.205Z,8.00
2019-03-01T23:17:02.128Z,8.33
2019-03-01T23:22:10.953Z,8.00
2019-03-01T23:27:16.358Z,6.97
2019-03-01T23:32:22.337Z,7.13
2019-03-01T23:37:28.398Z,6.00
2019-03-01T23:42:34.158Z,6.97
2019-03-01T23:47:40.229Z,5.57
2019-03-01T23:52:46.171Z,5.07
2019-03-01T23:57:51.985Z,5.33
